Archival Weather

Heathrow

London, United Kingdom (EGLL)

Report from: Tuesday, June 18, 2024 10:50 AM BST
Current time: Monday, July 22, 2024 12:48 PM BST

Current weather – Weather history – Daily summaries
Weather forecast

Temperature19.0°C (66.2°F)
Dew point10.0°C (50.0°F)
Winds 6 kts (3.1 m/s, 6.9 mph) Vrb
Winds variableWinds variable from Northwest (320°) to East-Northeast (60°)
Visibility6.2 mi. (10 km)
Clouds Sky clear
Altimeter29.94 in.Hg (1014 mB)
Relative humidity56 %
Density altitude618 ft. (188 m)
Remarks Fully automated report
No clouds detected
Flight conditions Visual Meteorological Conditions
Raw dataEGLL 180950Z AUTO 02006KT 320V060 9999 NCD 19/10 Q1014
An error has occurred. This application may no longer respond until reloaded. Reload 🗙